Time;durP1;ratioP1;P1;durP2;ratioP2;P2;SDS_P1;SDS_P2;PMS_P1;PMS_P2;Temp;Humidity;BMP_temperature;BMP_pressure;BME280_temperature;BME280_humidity;BME280_pressure;Samples;Min_cycle;Max_cycle;Signal;HPM_P1;HPM_P2
2020/12/02 00:00:43;;;;;;;25.25;16.73;;;7.40;92.70;;;;;;5021284;28;20029;-76
2020/12/02 00:03:24;;;;;;;22.92;15.90;;;7.40;92.60;;;;;;5038070;28;20520;-76
2020/12/02 00:05:53;;;;;;;23.65;15.52;;;7.30;92.60;;;;;;5055916;28;20033;-78
2020/12/02 00:08:28;;;;;;;21.80;14.55;;;7.30;92.70;;;;;;5054471;28;20489;-78
2020/12/02 00:10:54;;;;;;;23.40;15.77;;;7.40;92.70;;;;;;5055581;28;20036;-78
2020/12/02 00:13:27;;;;;;;27.70;17.08;;;7.30;92.60;;;;;;5055811;28;20033;-76
2020/12/02 00:15:52;;;;;;;28.42;16.55;;;7.30;92.70;;;;;;5037653;28;20025;-75
2020/12/02 00:18:18;;;;;;;23.88;14.98;;;7.30;92.70;;;;;;5055544;28;20036;-76
2020/12/02 00:20:44;;;;;;;25.52;15.57;;;7.30;92.70;;;;;;5037458;28;20033;-76
2020/12/02 00:23:10;;;;;;;22.35;15.00;;;7.30;92.70;;;;;;5055743;28;20059;-75
2020/12/02 00:25:35;;;;;;;24.98;14.75;;;7.30;92.70;;;;;;5020953;28;20029;-76
2020/12/02 00:28:03;;;;;;;23.50;15.00;;;7.30;92.70;;;;;;5055382;28;20029;-76
2020/12/02 00:30:33;;;;;;;27.30;16.95;;;7.30;92.70;;;;;;5054953;28;20037;-76
2020/12/02 00:33:08;;;;;;;26.63;15.93;;;7.30;92.70;;;;;;5034153;28;20507;-80
2020/12/02 00:35:35;;;;;;;30.75;17.60;;;7.30;92.70;;;;;;5035010;28;20024;-80
2020/12/02 00:38:01;;;;;;;27.75;16.35;;;7.30;92.70;;;;;;5042983;28;20611;-80
2020/12/02 00:40:27;;;;;;;28.73;16.48;;;7.20;92.70;;;;;;5037416;28;20028;-80
2020/12/02 00:42:52;;;;;;;24.83;14.73;;;7.10;92.80;;;;;;5055150;28;20151;-80
2020/12/02 00:45:18;;;;;;;25.13;15.43;;;7.20;92.80;;;;;;5020691;28;20048;-80
2020/12/02 00:47:49;;;;;;;30.92;16.90;;;7.20;92.90;;;;;;5054765;28;22042;-80
2020/12/02 00:50:15;;;;;;;26.85;15.65;;;7.20;92.90;;;;;;5054741;28;20174;-80
2020/12/02 00:52:40;;;;;;;22.63;14.48;;;7.20;92.90;;;;;;5053272;28;20541;-80
2020/12/02 00:55:06;;;;;;;30.73;17.48;;;7.20;92.90;;;;;;5034942;28;20382;-80
2020/12/02 00:57:34;;;;;;;23.63;14.93;;;7.20;92.90;;;;;;5017465;28;20025;-80
2020/12/02 01:00:05;;;;;;;26.52;15.57;;;7.20;92.90;;;;;;5017156;28;20088;-80
2020/12/02 01:02:50;;;;;;;27.13;15.75;;;7.20;92.90;;;;;;5016987;28;20033;-80
2020/12/02 01:05:16;;;;;;;31.08;16.85;;;7.20;93.00;;;;;;5016820;28;20025;-78
2020/12/02 01:07:43;;;;;;;21.48;14.15;;;7.20;92.90;;;;;;5017177;28;20029;-78
2020/12/02 01:10:11;;;;;;;26.42;15.35;;;7.20;92.90;;;;;;5034452;28;20092;-78
2020/12/02 01:12:38;;;;;;;25.23;15.32;;;7.20;92.90;;;;;;5053878;28;20060;-78
2020/12/02 01:15:08;;;;;;;26.42;14.50;;;7.20;93.00;;;;;;5054544;28;20052;-78
2020/12/02 01:17:34;;;;;;;25.25;14.50;;;7.20;93.00;;;;;;5036869;28;20025;-78
2020/12/02 01:20:00;;;;;;;26.77;14.50;;;7.20;93.00;;;;;;5054405;28;20059;-78
2020/12/02 01:22:43;;;;;;;27.08;15.93;;;7.20;93.00;;;;;;5036463;28;20029;-78
2020/12/02 01:25:18;;;;;;;35.63;18.15;;;7.20;93.10;;;;;;5054074;28;20029;-78
2020/12/02 01:27:58;;;;;;;29.83;15.45;;;7.10;93.10;;;;;;5054087;28;20511;-78
2020/12/02 01:30:24;;;;;;;23.90;14.25;;;7.20;93.10;;;;;;5054150;28;20044;-78
2020/12/02 01:32:51;;;;;;;24.02;14.38;;;7.20;93.10;;;;;;5053812;28;20073;-78
2020/12/02 01:35:29;;;;;;;26.48;13.77;;;7.10;93.10;;;;;;5036235;28;20029;-78
2020/12/02 01:37:58;;;;;;;28.52;15.02;;;7.20;93.20;;;;;;5019442;28;20017;-76
2020/12/02 01:40:25;;;;;;;;;;;7.20;93.40;;;;;;5054604;28;20021;-76
2020/12/02 01:43:01;;;;;;;28.73;14.68;;;7.20;93.10;;;;;;5053898;28;20349;-76
2020/12/02 01:45:34;;;;;;;27.60;14.90;;;7.20;93.10;;;;;;5054128;28;20150;-76
2020/12/02 01:48:09;;;;;;;29.98;15.50;;;7.20;93.20;;;;;;5054003;28;20338;-76
2020/12/02 01:51:07;;;;;;;32.85;14.90;;;7.20;93.20;;;;;;5035905;28;20028;-76
2020/12/02 01:53:44;;;;;;;34.97;15.40;;;7.20;93.20;;;;;;5018518;28;20033;-76
2020/12/02 01:56:30;;;;;;;25.30;13.85;;;7.20;93.10;;;;;;5033868;28;20022;-76
2020/12/02 01:59:46;;;;;;;28.70;14.93;;;7.20;93.20;;;;;;5052629;28;20020;-76
2020/12/02 02:02:12;;;;;;;23.80;13.75;;;7.20;93.20;;;;;;5019622;28;20551;-76
2020/12/02 02:04:54;;;;;;;24.20;12.95;;;7.20;93.20;;;;;;5035663;28;20029;-76
2020/12/02 02:07:23;;;;;;;32.28;15.38;;;7.20;93.20;;;;;;5053667;28;20033;-76
2020/12/02 02:09:56;;;;;;;29.20;14.25;;;7.20;93.20;;;;;;5037163;28;20035;-76
2020/12/02 02:12:46;;;;;;;34.70;15.70;;;7.20;93.10;;;;;;5035540;28;20042;-76
2020/12/02 02:15:37;;;;;;;32.05;15.73;;;7.20;93.20;;;;;;5035312;28;20025;-76
2020/12/02 02:18:08;;;;;;;39.50;16.25;;;7.20;93.20;;;;;;5049561;28;20067;-76
2020/12/02 02:20:37;;;;;;;36.67;16.33;;;7.20;93.20;;;;;;5035742;28;20025;-78
2020/12/02 02:23:05;;;;;;;32.13;14.88;;;7.20;93.10;;;;;;5037053;28;20029;-76
2020/12/02 02:25:32;;;;;;;34.33;15.88;;;7.20;93.10;;;;;;5052460;28;20384;-76
2020/12/02 02:28:00;;;;;;;28.38;15.10;;;7.20;93.20;;;;;;5052633;28;20040;-76
2020/12/02 02:30:25;;;;;;;35.58;16.52;;;7.20;93.20;;;;;;5052343;28;20442;-76
2020/12/02 02:32:51;;;;;;;36.45;16.48;;;7.20;93.20;;;;;;5034514;28;20076;-75
2020/12/02 02:35:17;;;;;;;34.55;16.80;;;7.20;93.20;;;;;;5035052;28;20477;-76
2020/12/02 02:37:43;;;;;;;41.30;17.27;;;7.30;93.20;;;;;;5036344;28;20025;-76
2020/12/02 02:40:11;;;;;;;34.50;16.45;;;7.20;93.10;;;;;;5034866;28;20028;-76
2020/12/02 02:42:46;;;;;;;30.95;14.93;;;7.30;93.20;;;;;;5034558;28;20071;-76
2020/12/02 02:45:19;;;;;;;28.67;15.82;;;7.20;93.10;;;;;;5052618;28;20025;-76
2020/12/02 02:47:45;;;;;;;32.05;15.45;;;7.20;93.10;;;;;;5052535;28;20032;-76
2020/12/02 02:50:14;;;;;;;34.30;16.15;;;7.30;93.20;;;;;;5052355;28;20033;-76
2020/12/02 02:52:41;;;;;;;39.75;17.27;;;7.30;93.20;;;;;;5051664;28;20025;-76
2020/12/02 02:55:11;;;;;;;43.17;18.20;;;7.30;93.10;;;;;;5034861;28;20083;-76
2020/12/02 02:57:37;;;;;;;33.50;15.63;;;7.30;93.10;;;;;;5034472;28;20120;-76
2020/12/02 03:00:11;;;;;;;40.10;17.58;;;7.20;93.10;;;;;;5034361;28;20120;-76
2020/12/02 03:02:37;;;;;;;42.33;18.98;;;7.20;93.10;;;;;;5031281;28;20043;-76
2020/12/02 03:05:05;;;;;;;52.97;20.83;;;7.20;93.10;;;;;;5052517;28;20033;-76
2020/12/02 03:07:31;;;;;;;43.97;18.75;;;7.20;93.20;;;;;;5042091;28;20061;-76
2020/12/02 03:09:57;;;;;;;41.33;17.88;;;7.20;93.20;;;;;;5034609;28;20055;-76
2020/12/02 03:12:24;;;;;;;49.47;19.27;;;7.20;93.30;;;;;;5039628;28;20123;-76
2020/12/02 03:14:50;;;;;;;47.35;20.20;;;7.30;93.30;;;;;;5051598;28;20492;-76
2020/12/02 03:17:22;;;;;;;51.58;20.30;;;7.30;93.20;;;;;;5045832;28;20036;-76
2020/12/02 03:19:58;;;;;;;43.88;18.05;;;7.30;93.20;;;;;;5022427;28;20060;-76
2020/12/02 03:22:26;;;;;;;52.58;19.55;;;7.30;93.20;;;;;;5027396;28;20053;-76
2020/12/02 03:24:56;;;;;;;46.42;20.15;;;7.30;93.20;;;;;;5033007;28;20415;-78
2020/12/02 03:27:22;;;;;;;;;;;7.30;93.20;;;;;;5035196;28;20496;-78
2020/12/02 03:29:47;;;;;;;42.97;19.40;;;7.20;93.20;;;;;;5055996;28;19952;-78
2020/12/02 03:32:13;;;;;;;45.05;19.42;;;7.30;93.30;;;;;;5038330;28;20094;-78
2020/12/02 03:34:38;;;;;;;47.40;19.48;;;7.30;93.30;;;;;;5056163;28;20021;-78
2020/12/02 03:37:04;;;;;;;63.10;21.33;;;7.30;93.30;;;;;;5038485;28;20448;-78
2020/12/02 03:39:30;;;;;;;52.70;21.27;;;7.30;93.30;;;;;;5056145;28;20035;-78
2020/12/02 03:41:55;;;;;;;54.20;21.45;;;7.20;93.20;;;;;;5056335;28;20416;-78
2020/12/02 03:44:21;;;;;;;64.72;23.63;;;7.30;93.30;;;;;;5038307;28;20037;-78
2020/12/02 03:46:47;;;;;;;55.33;22.85;;;7.30;93.30;;;;;;5055929;28;20028;-78
2020/12/02 03:49:12;;;;;;;56.53;21.88;;;7.20;93.30;;;;;;5038272;28;20029;-78
2020/12/02 03:51:38;;;;;;;54.63;21.30;;;7.20;93.30;;;;;;5055577;28;20036;-78
2020/12/02 03:54:05;;;;;;;57.08;22.83;;;7.20;93.30;;;;;;5038420;28;20057;-78
2020/12/02 03:56:31;;;;;;;73.80;24.77;;;7.20;93.30;;;;;;5055479;28;20021;-78
2020/12/02 03:58:57;;;;;;;67.28;24.02;;;7.20;93.30;;;;;;5055284;28;20028;-78
2020/12/02 04:01:23;;;;;;;65.18;24.55;;;7.20;93.30;;;;;;5055589;28;20113;-78
2020/12/02 04:03:48;;;;;;;51.58;22.05;;;7.20;93.30;;;;;;5038128;28;20196;-78
2020/12/02 04:06:15;;;;;;;58.53;23.17;;;7.20;93.30;;;;;;5041246;28;20036;-78
2020/12/02 04:08:42;;;;;;;74.47;25.60;;;7.20;93.40;;;;;;5025896;28;20029;-78
2020/12/02 04:11:09;;;;;;;65.18;24.10;;;7.20;93.40;;;;;;5019383;28;20099;-78
2020/12/02 04:13:35;;;;;;;63.05;24.30;;;7.20;93.40;;;;;;5037722;28;20060;-78
2020/12/02 04:16:03;;;;;;;66.75;24.00;;;7.20;93.40;;;;;;5055709;28;20021;-78
2020/12/02 04:18:29;;;;;;;59.88;22.80;;;7.20;93.40;;;;;;5055624;28;20028;-78
2020/12/02 04:20:55;;;;;;;68.82;24.77;;;7.20;93.40;;;;;;5055769;28;20021;-78
2020/12/02 04:23:21;;;;;;;88.22;27.17;;;7.20;93.40;;;;;;5021165;28;20029;-78
2020/12/02 04:25:47;;;;;;;61.08;23.77;;;7.20;93.40;;;;;;5037323;28;20428;-78
2020/12/02 04:28:13;;;;;;;62.63;23.17;;;7.20;93.40;;;;;;5037767;28;20445;-76
2020/12/02 04:30:40;;;;;;;87.47;26.50;;;7.20;93.40;;;;;;5055755;28;20082;-75
2020/12/02 04:33:05;;;;;;;88.05;25.77;;;7.20;93.40;;;;;;5055256;28;20040;-80
2020/12/02 04:35:31;;;;;;;71.47;25.30;;;7.20;93.40;;;;;;5054954;28;20029;-80
2020/12/02 04:37:56;;;;;;;87.00;27.98;;;7.20;93.50;;;;;;5055413;28;20405;-80
2020/12/02 04:40:29;;;;;;;67.65;25.38;;;7.20;93.40;;;;;;5036759;28;20021;-80
2020/12/02 04:43:12;;;;;;;104.25;26.60;;;7.20;93.40;;;;;;5042028;28;20039;-80
2020/12/02 04:45:37;;;;;;;63.30;23.92;;;7.20;93.50;;;;;;5055314;28;20056;-80
2020/12/02 04:48:10;;;;;;;61.55;24.30;;;7.20;93.50;;;;;;5037384;28;20123;-80
2020/12/02 04:50:36;;;;;;;87.15;26.02;;;7.20;93.50;;;;;;5037187;28;20024;-80
2020/12/02 04:53:23;;;;;;;75.40;24.85;;;7.20;93.50;;;;;;5037134;28;20599;-80
2020/12/02 04:55:54;;;;;;;64.40;22.70;;;7.20;93.50;;;;;;5054880;28;20025;-80
2020/12/02 04:58:27;;;;;;;59.50;23.65;;;7.20;93.40;;;;;;5020607;28;20029;-80
2020/12/02 05:00:53;;;;;;;62.67;24.40;;;7.20;93.40;;;;;;5050356;28;20037;-80
2020/12/02 05:03:19;;;;;;;59.47;24.08;;;7.20;93.40;;;;;;5054524;28;20083;-80
2020/12/02 05:05:45;;;;;;;62.00;25.40;;;7.20;93.40;;;;;;5054910;28;20393;-80
2020/12/02 05:08:27;;;;;;;65.93;25.90;;;7.20;93.40;;;;;;5054648;28;20029;-80
2020/12/02 05:10:54;;;;;;;91.15;27.42;;;7.20;93.40;;;;;;5054847;28;20029;-80
2020/12/02 05:13:20;;;;;;;56.42;22.65;;;7.20;93.40;;;;;;5036520;28;20024;-80
2020/12/02 05:15:46;;;;;;;53.85;22.27;;;7.10;93.40;;;;;;5054468;28;20048;-80
2020/12/02 05:18:15;;;;;;;59.50;22.67;;;7.10;93.40;;;;;;5036565;28;20478;-80
2020/12/02 05:20:42;;;;;;;51.33;21.80;;;7.20;93.40;;;;;;5042184;28;20025;-76
2020/12/02 05:23:18;;;;;;;66.78;24.95;;;7.20;93.40;;;;;;5036693;28;20033;-76
2020/12/02 05:25:43;;;;;;;84.93;26.40;;;7.20;93.40;;;;;;5036338;28;20025;-76
2020/12/02 05:28:31;;;;;;;67.25;27.38;;;7.20;93.40;;;;;;5036471;28;20382;-76
2020/12/02 05:31:20;;;;;;;63.35;24.73;;;7.20;93.40;;;;;;5053473;28;20036;-76
2020/12/02 05:33:46;;;;;;;68.45;25.48;;;7.10;93.40;;;;;;5042096;28;20087;-76
2020/12/02 05:36:32;;;;;;;67.40;26.92;;;7.10;93.40;;;;;;5019669;28;20041;-76
2020/12/02 05:39:30;;;;;;;65.07;26.30;;;7.10;93.50;;;;;;5036024;28;20033;-76
2020/12/02 05:41:56;;;;;;;62.95;24.65;;;7.10;93.50;;;;;;5052674;28;20021;-76
2020/12/02 05:44:31;;;;;;;63.78;25.65;;;7.10;93.50;;;;;;5053726;28;20049;-76
2020/12/02 05:47:00;;;;;;;63.20;24.88;;;7.10;93.50;;;;;;5053556;28;20021;-76
2020/12/02 05:49:38;;;;;;;87.45;28.13;;;7.10;93.50;;;;;;5053667;28;20044;-76
2020/12/02 05:52:03;;;;;;;61.30;25.73;;;7.10;93.50;;;;;;5052681;28;20028;-76
2020/12/02 05:54:33;;;;;;;81.57;29.30;;;7.10;93.50;;;;;;5039241;28;20029;-76
2020/12/02 05:56:59;;;;;;;;;;;7.10;93.50;;;;;;5053607;28;20021;-76
2020/12/02 05:59:24;;;;;;;68.32;27.38;;;7.10;93.40;;;;;;5053435;28;19909;-75
2020/12/02 06:01:51;;;;;;;59.58;25.80;;;7.10;93.50;;;;;;5053420;28;20561;-76
2020/12/02 06:04:17;;;;;;;68.57;28.25;;;7.10;93.50;;;;;;5035711;28;20061;-75
2020/12/02 06:06:56;;;;;;;71.40;27.92;;;7.10;93.50;;;;;;5035211;28;20033;-76
2020/12/02 06:09:38;;;;;;;98.55;31.33;;;7.10;93.50;;;;;;5053614;28;20025;-76
2020/12/02 06:12:04;;;;;;;78.95;29.10;;;7.10;93.40;;;;;;5050941;28;20025;-76
2020/12/02 06:14:32;;;;;;;63.28;26.23;;;7.10;93.40;;;;;;5027063;28;20036;-76
2020/12/02 06:16:59;;;;;;;60.78;27.13;;;7.10;93.50;;;;;;5053727;28;20362;-76
2020/12/02 06:19:31;;;;;;;82.10;29.98;;;7.10;93.50;;;;;;5053162;28;20117;-76
2020/12/02 06:22:00;;;;;;;97.90;31.20;;;7.10;93.50;;;;;;5053302;28;20378;-76
2020/12/02 06:24:32;;;;;;;69.93;27.88;;;7.10;93.50;;;;;;5052982;28;20426;-75
2020/12/02 06:26:59;;;;;;;72.97;28.42;;;7.10;93.50;;;;;;5035465;28;20035;-76
2020/12/02 06:29:35;;;;;;;65.35;27.70;;;7.10;93.50;;;;;;5023905;28;20033;-75
2020/12/02 06:32:11;;;;;;;78.45;29.70;;;7.10;93.50;;;;;;5015354;28;20030;-76
2020/12/02 06:34:37;;;;;;;68.18;27.05;;;7.10;93.50;;;;;;5051490;28;20032;-76
2020/12/02 06:37:21;;;;;;;65.10;26.42;;;7.10;93.50;;;;;;5035462;28;20021;-76
2020/12/02 06:39:58;;;;;;;81.18;28.67;;;7.10;93.50;;;;;;5035355;28;20474;-76
2020/12/02 06:42:34;;;;;;;74.55;28.98;;;7.20;93.50;;;;;;5053164;28;20064;-76
2020/12/02 06:45:26;;;;;;;70.07;27.85;;;7.10;93.50;;;;;;5018465;28;21814;-80
2020/12/02 06:47:58;;;;;;;67.10;27.90;;;7.20;93.40;;;;;;5004965;28;20029;-80
2020/12/02 06:50:27;;;;;;;68.90;27.40;;;7.10;93.40;;;;;;5035061;28;20029;-80
2020/12/02 06:52:56;;;;;;;66.97;27.42;;;7.10;93.40;;;;;;5035042;28;20674;-80
2020/12/02 06:55:25;;;;;;;70.35;27.23;;;7.20;93.40;;;;;;5053244;28;20013;-80
2020/12/02 06:58:00;;;;;;;84.80;29.77;;;7.20;93.40;;;;;;5053113;28;20478;-80
2020/12/02 07:00:29;;;;;;;62.13;27.15;;;7.20;93.40;;;;;;5035256;28;20032;-80
2020/12/02 07:02:54;;;;;;;91.68;30.98;;;7.10;93.40;;;;;;5052914;28;20025;-76
2020/12/02 07:05:40;;;;;;;84.32;29.63;;;7.20;93.40;;;;;;5057178;28;20096;-77
2020/12/02 07:08:26;;;;;;;80.25;30.45;;;7.10;93.60;;;;;;5056939;28;20053;-77
2020/12/02 07:11:19;;;;;;;75.80;28.88;;;7.10;93.40;;;;;;5038956;28;20051;-77
2020/12/02 07:13:48;;;;;;;97.93;32.45;;;7.20;93.40;;;;;;5031366;28;20064;-77
2020/12/02 07:16:22;;;;;;;89.22;31.98;;;7.10;93.30;;;;;;5038991;28;20428;-80
2020/12/02 07:19:08;;;;;;;79.65;29.65;;;7.10;93.30;;;;;;5038990;28;20025;-80
2020/12/02 07:21:42;;;;;;;69.55;28.52;;;7.10;93.40;;;;;;5056739;28;20063;-80
2020/12/02 07:24:17;;;;;;;65.47;27.90;;;7.10;93.40;;;;;;5038838;28;20032;-80
2020/12/02 07:26:43;;;;;;;92.18;31.00;;;7.10;93.40;;;;;;5056579;28;20050;-80
2020/12/02 07:29:20;;;;;;;127.15;32.88;;;7.10;93.30;;;;;;5039002;28;20029;-80
2020/12/02 07:31:54;;;;;;;75.70;29.77;;;7.10;93.40;;;;;;5056270;28;20032;-80
2020/12/02 07:34:22;;;;;;;95.57;31.73;;;7.10;93.40;;;;;;5038746;28;20111;-80
2020/12/02 07:36:48;;;;;;;86.78;32.70;;;7.10;93.40;;;;;;5056596;28;20021;-80
2020/12/02 07:39:21;;;;;;;105.82;33.63;;;7.10;93.40;;;;;;5038059;28;20382;-80
2020/12/02 07:42:06;;;;;;;78.07;30.15;;;7.10;93.40;;;;;;5038521;28;20029;-80
2020/12/02 07:44:48;;;;;;;94.45;33.80;;;7.10;93.40;;;;;;5056241;28;20592;-80
2020/12/02 07:47:16;;;;;;;89.80;31.08;;;7.10;93.40;;;;;;5038272;28;20033;-80
2020/12/02 07:50:17;;;;;;;101.65;34.17;;;7.10;93.40;;;;;;5055902;28;20025;-80
2020/12/02 07:52:47;;;;;;;93.53;32.83;;;7.10;93.40;;;;;;5038131;28;20058;-80
2020/12/02 07:55:19;;;;;;;100.93;33.17;;;7.10;93.40;;;;;;5055316;28;20154;-80
2020/12/02 07:57:46;;;;;;;87.82;31.17;;;7.10;93.40;;;;;;5037068;28;20115;-80
2020/12/02 08:00:32;;;;;;;88.13;31.20;;;7.10;93.40;;;;;;5042410;28;20029;-80
2020/12/02 08:02:57;;;;;;;101.63;33.70;;;7.10;93.40;;;;;;5057823;28;20017;-79
2020/12/02 08:05:23;;;;;;;90.63;33.38;;;7.10;93.40;;;;;;5046309;28;20023;-79
2020/12/02 08:07:59;;;;;;;85.22;32.58;;;7.10;93.40;;;;;;5043765;28;20017;-80
2020/12/02 08:10:27;;;;;;;101.60;35.40;;;7.20;93.40;;;;;;5062468;28;20024;-79
2020/12/02 08:12:53;;;;;;;87.57;33.22;;;7.20;93.60;;;;;;5061886;28;20040;-79
2020/12/02 08:15:19;;;;;;;101.22;35.28;;;7.20;93.30;;;;;;5027223;28;20385;-79
2020/12/02 08:18:14;;;;;;;115.75;36.60;;;7.20;93.30;;;;;;5030224;28;20485;-80
2020/12/02 08:20:42;;;;;;;99.18;35.40;;;7.10;93.30;;;;;;5041975;28;20044;-79
2020/12/02 08:23:13;;;;;;;94.78;35.97;;;7.10;93.30;;;;;;5069495;28;20048;-80
2020/12/02 08:25:58;;;;;;;96.57;35.45;;;7.10;93.30;;;;;;5055083;28;20025;-80
2020/12/02 08:28:28;;;;;;;82.80;32.30;;;7.10;93.30;;;;;;5037763;28;20070;-77
2020/12/02 08:31:22;;;;;;;119.75;39.55;;;7.10;93.30;;;;;;5037797;28;20128;-77
2020/12/02 08:34:10;;;;;;;101.47;35.47;;;7.20;93.30;;;;;;5037391;28;20053;-77
2020/12/02 08:36:42;;;;;;;92.60;33.45;;;7.10;93.30;;;;;;5037279;28;20090;-77
2020/12/02 08:39:08;;;;;;;101.45;36.72;;;7.10;93.30;;;;;;5050751;28;20055;-77
2020/12/02 08:41:45;;;;;;;83.80;33.65;;;7.10;93.20;;;;;;5037341;28;20389;-77
2020/12/02 08:44:15;;;;;;;83.15;33.40;;;7.20;93.30;;;;;;5037236;28;20055;-77
2020/12/02 08:46:52;;;;;;;88.85;34.22;;;7.10;93.20;;;;;;5037160;28;20029;-77
2020/12/02 08:49:23;;;;;;;85.00;32.45;;;7.20;93.30;;;;;;5017362;28;20033;-77
2020/12/02 08:51:49;;;;;;;92.28;32.03;;;7.20;93.20;;;;;;5029379;28;20025;-77
2020/12/02 08:54:15;;;;;;;102.13;36.30;;;7.20;93.20;;;;;;5037306;28;20029;-78
2020/12/02 08:56:41;;;;;;;108.85;38.17;;;7.20;93.20;;;;;;5037096;28;20430;-80
2020/12/02 08:59:13;;;;;;;100.82;35.53;;;7.20;93.20;;;;;;5037119;28;20056;-80
2020/12/02 09:01:39;;;;;;;114.32;37.00;;;7.20;93.20;;;;;;5054674;28;20029;-80
2020/12/02 09:04:04;;;;;;;121.93;35.67;;;7.20;93.20;;;;;;5029032;28;20079;-80
2020/12/02 09:06:30;;;;;;;122.32;37.42;;;7.20;93.20;;;;;;5016888;28;20386;-80
2020/12/02 09:08:56;;;;;;;111.15;35.70;;;7.20;93.20;;;;;;5017969;28;20496;-80
2020/12/02 09:11:26;;;;;;;109.32;35.08;;;7.20;93.20;;;;;;5036855;28;20025;-80
2020/12/02 09:13:53;;;;;;;96.07;33.45;;;7.20;93.20;;;;;;5054723;28;20070;-80
2020/12/02 09:16:35;;;;;;;112.82;36.35;;;7.20;93.30;;;;;;5036759;28;20515;-79
2020/12/02 09:19:03;;;;;;;85.30;32.65;;;7.20;93.30;;;;;;5036432;28;20120;-79
2020/12/02 09:21:29;;;;;;;111.13;35.03;;;7.20;93.50;;;;;;5036696;28;20090;-80
2020/12/02 09:23:56;;;;;;;96.47;34.47;;;7.20;93.30;;;;;;5020189;28;20386;-80
2020/12/02 09:26:25;;;;;;;98.72;33.25;;;7.20;93.20;;;;;;5054269;28;20025;-80
2020/12/02 09:28:51;;;;;;;90.20;32.28;;;7.20;93.20;;;;;;5036466;28;20120;-80
2020/12/02 09:31:19;;;;;;;94.20;33.63;;;7.20;93.20;;;;;;5049818;28;20123;-81
2020/12/02 09:33:46;;;;;;;88.90;32.55;;;7.20;93.20;;;;;;5007269;28;20053;-80
2020/12/02 09:36:12;;;;;;;79.13;32.35;;;7.20;93.20;;;;;;5036560;28;20029;-80
2020/12/02 09:38:38;;;;;;;77.65;29.90;;;7.20;93.20;;;;;;5036398;28;20025;-80
2020/12/02 09:41:21;;;;;;;81.30;32.08;;;7.20;93.20;;;;;;5036180;28;20035;-80
2020/12/02 09:43:54;;;;;;;76.03;29.98;;;7.20;93.20;;;;;;5053982;28;20486;-80
2020/12/02 09:46:22;;;;;;;72.93;30.50;;;7.20;93.20;;;;;;5035878;28;20059;-80
2020/12/02 09:48:48;;;;;;;67.20;28.95;;;7.30;93.20;;;;;;5035972;28;20025;-80
2020/12/02 09:51:23;;;;;;;76.53;32.53;;;7.30;93.20;;;;;;5036255;28;20432;-79
2020/12/02 09:53:49;;;;;;;72.63;29.75;;;7.40;93.20;;;;;;5035953;28;20059;-79
2020/12/02 09:56:16;;;;;;;72.95;29.52;;;7.40;93.10;;;;;;5020273;28;20033;-79
2020/12/02 09:58:42;;;;;;;66.45;28.77;;;7.40;93.10;;;;;;5019110;28;20461;-79
2020/12/02 10:01:40;;;;;;;76.50;31.95;;;7.40;93.10;;;;;;5019520;28;20021;-79
2020/12/02 10:04:46;;;;;;;67.30;28.00;;;7.50;93.10;;;;;;5052428;28;20017;-80
2020/12/02 10:07:25;;;;;;;71.00;30.33;;;7.50;93.00;;;;;;5024967;28;20081;-81
2020/12/02 10:10:03;;;;;;;65.65;27.30;;;7.50;93.00;;;;;;5053025;28;20017;-81
2020/12/02 10:12:38;;;;;;;60.72;27.70;;;7.50;93.00;;;;;;5052354;28;20029;-81
2020/12/02 10:15:19;;;;;;;65.13;28.92;;;7.50;93.00;;;;;;5053594;28;20035;-81
2020/12/02 10:18:36;;;;;;;65.03;27.70;;;7.50;93.00;;;;;;5035537;28;20082;-80
2020/12/02 10:21:19;;;;;;;62.88;27.20;;;7.50;93.00;;;;;;5019698;28;20029;-81
2020/12/02 10:23:48;;;;;;;66.78;27.30;;;7.50;93.20;;;;;;5053243;28;20029;-81
2020/12/02 10:26:23;;;;;;;62.78;28.50;;;7.50;92.90;;;;;;5053388;28;20389;-81
2020/12/02 10:29:20;;;;;;;64.95;27.90;;;7.50;92.90;;;;;;5051975;28;20033;-81
2020/12/02 10:31:55;;;;;;;70.15;28.70;;;7.50;92.90;;;;;;4998277;28;20399;-80
2020/12/02 10:34:27;;;;;;;68.35;28.77;;;7.50;92.90;;;;;;5035370;28;20436;-81
2020/12/02 10:37:02;;;;;;;69.00;30.67;;;7.60;92.90;;;;;;5034872;28;20025;-81
2020/12/02 10:39:31;;;;;;;71.07;29.88;;;7.60;92.90;;;;;;5034839;28;20043;-81
2020/12/02 10:42:30;;;;;;;66.55;30.25;;;7.50;92.80;;;;;;5035448;28;20035;-81
2020/12/02 10:44:59;;;;;;;71.40;29.88;;;7.60;92.90;;;;;;5032064;28;20036;-81
2020/12/02 10:47:50;;;;;;;64.03;28.80;;;7.60;92.80;;;;;;5033360;28;20022;-81
2020/12/02 10:50:18;;;;;;;71.55;28.83;;;7.60;92.80;;;;;;5033342;28;20029;-81
2020/12/02 10:52:49;;;;;;;65.75;29.33;;;7.60;92.80;;;;;;5033261;28;20037;-81
2020/12/02 10:55:18;;;;;;;65.45;30.00;;;7.60;92.80;;;;;;5015592;28;20025;-81
2020/12/02 10:57:44;;;;;;;62.55;28.20;;;7.60;92.70;;;;;;5033228;28;20076;-81
2020/12/02 11:00:14;;;;;;;58.17;27.55;;;7.60;92.70;;;;;;5047581;28;20028;-81
2020/12/02 11:02:40;;;;;;;66.82;31.27;;;7.60;92.70;;;;;;5053351;28;20108;-81
2020/12/02 11:05:07;;;;;;;64.63;30.70;;;7.60;92.60;;;;;;5035197;28;20079;-81
2020/12/02 11:07:56;;;;;;;59.08;29.85;;;7.60;92.50;;;;;;5034995;28;20048;-81
2020/12/02 11:10:38;;;;;;;63.50;28.98;;;7.60;92.60;;;;;;5051288;28;20363;-81
2020/12/02 11:13:38;;;;;;;62.75;28.63;;;7.60;92.50;;;;;;5034693;28;20029;-81
2020/12/02 11:16:26;;;;;;;67.32;30.63;;;7.60;92.50;;;;;;5017989;28;20120;-81
2020/12/02 11:18:57;;;;;;;64.10;29.38;;;7.60;92.40;;;;;;5034165;28;20049;-81
2020/12/02 11:21:42;;;;;;;60.20;29.25;;;7.60;92.40;;;;;;5052689;28;20025;-82
2020/12/02 11:24:15;;;;;;;61.78;28.45;;;7.60;92.50;;;;;;5051102;28;20040;-81
2020/12/02 11:26:41;;;;;;;59.78;27.27;;;7.50;92.40;;;;;;5034935;28;20039;-82
2020/12/02 11:29:12;;;;;;;55.03;26.67;;;7.60;92.40;;;;;;5018921;28;20037;-82
2020/12/02 11:31:47;;;;;;;57.90;28.83;;;7.50;92.50;;;;;;5035001;28;20029;-82
2020/12/02 11:34:40;;;;;;;53.53;27.02;;;7.60;92.50;;;;;;5051671;28;20399;-82
2020/12/02 11:37:09;;;;;;;62.15;28.98;;;7.60;92.50;;;;;;5046530;28;20020;-82
2020/12/02 11:40:03;;;;;;;56.40;26.10;;;7.60;92.50;;;;;;5052968;28;20135;-83
2020/12/02 11:42:40;;;;;;;55.78;26.38;;;7.60;92.50;;;;;;5034795;28;20111;-82
2020/12/02 11:45:11;;;;;;;57.42;27.95;;;7.60;92.50;;;;;;5051611;28;20078;-83
2020/12/02 11:47:55;;;;;;;55.83;26.70;;;7.60;92.50;;;;;;5052789;28;20029;-82
2020/12/02 11:50:23;;;;;;;63.03;30.17;;;7.60;92.50;;;;;;5035582;28;20036;-82
2020/12/02 11:53:12;;;;;;;63.88;30.42;;;7.70;92.50;;;;;;5055219;28;20029;-83
2020/12/02 11:55:38;;;;;;;59.17;29.63;;;7.70;92.40;;;;;;5038544;28;20064;-82
2020/12/02 11:58:07;;;;;;;61.78;29.95;;;7.60;92.40;;;;;;5022022;28;20060;-83
2020/12/02 12:00:32;;;;;;;60.53;28.17;;;7.60;92.40;;;;;;5056548;28;20025;-82
2020/12/02 12:03:29;;;;;;;56.47;27.10;;;7.60;92.40;;;;;;5038043;28;20044;-81
2020/12/02 12:06:07;;;;;;;63.45;29.98;;;7.60;92.40;;;;;;5055743;28;20092;-82
2020/12/02 12:08:33;;;;;;;59.07;28.67;;;7.60;92.50;;;;;;5055765;28;20526;-82
2020/12/02 12:11:06;;;;;;;57.88;28.50;;;7.60;92.40;;;;;;5055648;28;20113;-82
2020/12/02 12:13:34;;;;;;;63.03;31.08;;;7.70;92.40;;;;;;5037771;28;20029;-82
2020/12/02 12:16:22;;;;;;;64.63;30.55;;;7.70;92.40;;;;;;5054749;28;20017;-82
2020/12/02 12:19:01;;;;;;;65.63;29.08;;;7.80;92.40;;;;;;5055812;28;20028;-82
2020/12/02 12:21:57;;;;;;;71.07;31.03;;;7.80;92.30;;;;;;5037887;28;20029;-83
2020/12/02 12:24:22;;;;;;;63.35;29.95;;;7.80;92.30;;;;;;5027899;28;20594;-78
2020/12/02 12:26:52;;;;;;;70.13;32.08;;;7.80;92.30;;;;;;5037840;28;20033;-77
2020/12/02 12:29:18;;;;;;;76.07;32.83;;;7.80;92.40;;;;;;5037231;28;20393;-78
2020/12/02 12:32:05;;;;;;;72.60;33.13;;;7.80;92.30;;;;;;5021325;28;20029;-78
2020/12/02 12:34:58;;;;;;;72.45;32.58;;;7.80;92.40;;;;;;5037640;28;20037;-78
2020/12/02 12:37:50;;;;;;;65.55;31.00;;;7.80;92.50;;;;;;5042975;28;20025;-78
2020/12/02 12:40:26;;;;;;;73.93;32.90;;;7.80;92.70;;;;;;5036802;28;20029;-78
2020/12/02 12:42:54;;;;;;;76.90;31.77;;;7.80;92.40;;;;;;5037125;28;20363;-79
2020/12/02 12:45:38;;;;;;;73.05;32.58;;;7.80;92.30;;;;;;5037154;28;20036;-78
2020/12/02 12:48:05;;;;;;;65.47;28.77;;;7.80;92.40;;;;;;5037419;28;20047;-78
2020/12/02 12:50:31;;;;;;;61.10;26.52;;;7.80;92.30;;;;;;5037354;28;20029;-77
2020/12/02 12:53:05;;;;;;;52.42;24.63;;;7.80;92.30;;;;;;5055020;28;20116;-77
2020/12/02 12:55:32;;;;;;;41.85;20.98;;;7.80;92.40;;;;;;5039045;28;20112;-77
2020/12/02 12:58:08;;;;;;;47.53;22.00;;;7.70;92.40;;;;;;5056998;28;20021;-78
2020/12/02 13:00:36;;;;;;;45.03;21.85;;;7.70;92.40;;;;;;5049428;28;20036;-81
2020/12/02 13:03:23;;;;;;;54.03;24.33;;;7.70;92.40;;;;;;5036238;28;20055;-80
2020/12/02 13:06:09;;;;;;;45.60;22.85;;;7.70;92.50;;;;;;5036990;28;20036;-81